To NAV CANADA Home Page Login to a new session Search on AWWS site Feedback and Comments Disclaimer Vers la page française équivalente Tips FAQ What's new on the site To the Forecasts and Observations / NOTAM section To "File a Flight Plan" website Publications and other links Update of the User's profile FIC Telephone Numbers My Weather Data Folder Route Weather Data Regional Weather Data Local Weather Data To the Forecasts and Observations / NOTAM section
Request Generated 05/27/2016 at 16:05:21 UTC . Weather information available at that time is displayed.

METAR/TAF

FORT CHIPEWYAN/AB    (show WxCam)

METAR CYPY 271600Z AUTO 09009G15KT 9SM -RA FEW070 OVC083 09/06 A2993
RMK SLP148=
METAR CYPY 271500Z AUTO 08011KT 9SM -RA OVC075 07/06 A2994 RMK
SLP151=
SPECI CYPY 271444Z AUTO 08012G18KT 9SM -RA OVC075 08/05 A2994 RMK
SLP151=
SPECI CYPY 271422Z AUTO 09011KT 9SM FEW060 OVC073 08/05 A2994 RMK
SLP150=
METAR CYPY 271400Z AUTO 07012KT 9SM -RA OVC070 08/05 A2994 RMK
SLP150=

TAF CYPY 271238Z 2713/2722 07010KT P6SM BKN070 TEMPO 2713/2722 P6SM
-SHRA BKN030 OVC070
RMK FCST BASED ON AUTO OBS. NXT FCST BY 271800Z=
Your time UTC time
Weather data provided by Environment Canada and NAV CANADA